createdAt,value
2023-03-22T00:01:15.762Z,26.80
2023-03-22T00:06:09.333Z,29.30
2023-03-22T00:11:02.416Z,29.70
2023-03-22T00:15:57.806Z,32.40
2023-03-22T00:20:52.232Z,35.10
2023-03-22T00:25:46.448Z,39.00
2023-03-22T00:30:40.775Z,37.10
2023-03-22T00:35:33.790Z,41.60
2023-03-22T00:40:26.609Z,40.60
2023-03-22T00:45:19.590Z,37.30
2023-03-22T00:50:12.422Z,38.30
2023-03-22T00:55:05.558Z,41.20
2023-03-22T00:59:58.419Z,42.00
2023-03-22T01:04:51.882Z,37.60
2023-03-22T01:09:46.755Z,41.80
2023-03-22T01:14:41.554Z,39.00
2023-03-22T01:19:35.938Z,37.80
2023-03-22T01:24:29.051Z,42.20
2023-03-22T01:29:21.965Z,41.90
2023-03-22T01:34:14.840Z,43.10
2023-03-22T01:39:08.313Z,41.80
2023-03-22T01:44:22.158Z,41.40
2023-03-22T01:49:26.492Z,38.60
2023-03-22T01:54:33.668Z,39.60
2023-03-22T01:59:28.702Z,41.80
2023-03-22T02:04:42.368Z,42.80
2023-03-22T02:09:39.649Z,43.40
2023-03-22T02:14:57.732Z,40.20
2023-03-22T02:20:15.664Z,41.60
2023-03-22T02:25:11.621Z,43.20
2023-03-22T02:30:18.216Z,41.50
2023-03-22T02:35:30.586Z,38.20
2023-03-22T02:40:45.593Z,37.10
2023-03-22T02:46:06.400Z,39.40
2023-03-22T02:51:09.134Z,36.50
2023-03-22T02:56:11.198Z,36.00
2023-03-22T03:01:08.445Z,37.40
2023-03-22T03:06:10.181Z,36.10
2023-03-22T03:11:02.981Z,37.60
2023-03-22T03:15:59.115Z,33.30
2023-03-22T03:21:20.590Z,34.00
2023-03-22T03:26:21.379Z,31.10
2023-03-22T03:31:58.758Z,34.10
2023-03-22T03:37:01.270Z,33.40
2023-03-22T03:41:56.930Z,31.70
2023-03-22T03:46:51.906Z,34.60
2023-03-22T03:51:51.308Z,31.80
2023-03-22T03:56:44.726Z,31.50
2023-03-22T04:01:37.683Z,30.60
2023-03-22T04:06:40.278Z,29.60
2023-03-22T04:11:37.166Z,24.00
2023-03-22T04:16:30.912Z,22.90
2023-03-22T04:21:24.038Z,25.40
2023-03-22T04:26:25.034Z,25.80
2023-03-22T04:31:39.317Z,24.20
2023-03-22T04:36:55.029Z,23.90
2023-03-22T04:41:54.350Z,18.10
2023-03-22T04:46:47.285Z,22.20
2023-03-22T04:51:41.038Z,18.50
2023-03-22T04:56:41.653Z,20.90
2023-03-22T05:01:35.521Z,18.30
2023-03-22T05:06:35.985Z,16.60
2023-03-22T05:11:40.837Z,18.40
2023-03-22T05:17:03.887Z,17.70
2023-03-22T05:22:02.183Z,17.80
2023-03-22T05:27:15.453Z,16.50
2023-03-22T05:32:10.216Z,17.50
2023-03-22T05:37:05.225Z,17.70
2023-03-22T05:42:10.755Z,16.60
2023-03-22T05:47:07.883Z,17.60
2023-03-22T05:52:06.182Z,21.10
2023-03-22T05:57:14.344Z,19.10
2023-03-22T06:02:07.315Z,19.30
2023-03-22T06:07:00.379Z,20.70
2023-03-22T06:12:05.584Z,18.10
2023-03-22T06:16:58.970Z,19.40
2023-03-22T06:21:52.989Z,18.50
2023-03-22T06:26:47.558Z,17.60
2023-03-22T06:31:40.723Z,20.00
2023-03-22T06:36:34.713Z,20.00
2023-03-22T06:41:31.299Z,19.30
2023-03-22T06:46:24.234Z,17.60
2023-03-22T06:51:24.670Z,19.40
2023-03-22T06:56:17.686Z,20.50
2023-03-22T07:01:14.408Z,20.40
2023-03-22T07:06:09.728Z,20.80
2023-03-22T07:16:02.126Z,20.20
2023-03-22T07:21:05.451Z,20.80
2023-03-22T07:26:00.840Z,21.70
2023-03-22T07:31:11.841Z,20.60
2023-03-22T07:36:12.984Z,20.00
2023-03-22T07:41:06.597Z,16.60
2023-03-22T07:46:19.120Z,16.60
2023-03-22T07:51:44.501Z,16.00
2023-03-22T07:56:38.049Z,15.40
2023-03-22T08:01:31.272Z,14.90
2023-03-22T08:06:46.597Z,14.80
2023-03-22T08:11:40.011Z,15.30
2023-03-22T08:16:33.096Z,14.20
2023-03-22T08:21:27.475Z,12.80
2023-03-22T08:26:22.324Z,13.10
2023-03-22T08:31:17.739Z,13.20
2023-03-22T08:36:16.417Z,13.00
2023-03-22T08:41:17.242Z,14.20
2023-03-22T08:46:10.584Z,13.30
2023-03-22T08:51:05.397Z,13.60
2023-03-22T08:56:22.748Z,13.90
2023-03-22T09:01:27.098Z,12.20
2023-03-22T09:06:26.864Z,13.60
2023-03-22T09:11:21.128Z,12.80
2023-03-22T09:16:15.185Z,14.70
2023-03-22T09:21:09.328Z,12.50
2023-03-22T09:26:10.151Z,12.60
2023-03-22T09:31:09.798Z,12.50
2023-03-22T09:36:03.551Z,11.90
2023-03-22T09:41:02.815Z,13.20
2023-03-22T09:45:58.210Z,12.50
2023-03-22T09:50:54.720Z,13.70
2023-03-22T09:56:20.164Z,12.30
2023-03-22T10:01:22.707Z,11.60
2023-03-22T10:06:24.628Z,11.40
2023-03-22T10:12:00.501Z,12.30
2023-03-22T10:16:57.310Z,11.60
2023-03-22T10:21:53.078Z,11.70
2023-03-22T10:26:50.125Z,11.10
2023-03-22T10:31:46.160Z,11.30
2023-03-22T10:36:42.318Z,10.60
2023-03-22T10:41:35.897Z,10.90
2023-03-22T10:46:36.023Z,11.40
2023-03-22T10:51:38.145Z,11.60
2023-03-22T10:56:30.984Z,10.50
2023-03-22T11:01:33.614Z,11.50
2023-03-22T11:06:33.015Z,11.60
2023-03-22T11:11:31.723Z,11.50
2023-03-22T11:16:24.880Z,10.80
2023-03-22T11:21:19.327Z,10.80
2023-03-22T11:26:15.451Z,11.70
2023-03-22T11:31:12.384Z,8.90
2023-03-22T11:36:17.140Z,9.70
2023-03-22T11:41:20.150Z,10.70
2023-03-22T11:46:13.413Z,9.80
2023-03-22T11:51:18.307Z,10.20
2023-03-22T11:56:14.782Z,9.80
2023-03-22T12:01:14.053Z,10.80
2023-03-22T12:06:20.529Z,10.40
2023-03-22T12:11:37.486Z,9.30
2023-03-22T12:16:37.726Z,8.90
2023-03-22T12:21:30.765Z,7.90
2023-03-22T12:26:27.540Z,8.70
2023-03-22T12:31:28.011Z,8.10
2023-03-22T12:36:30.747Z,9.30
2023-03-22T12:41:34.478Z,7.80
2023-03-22T12:46:55.187Z,8.10
2023-03-22T12:51:50.401Z,8.80
2023-03-22T12:56:46.379Z,8.40
2023-03-22T13:01:51.501Z,8.70
2023-03-22T13:06:44.812Z,8.10
2023-03-22T13:11:37.823Z,9.00
2023-03-22T13:16:51.844Z,8.30
2023-03-22T13:21:45.695Z,7.40
2023-03-22T13:26:49.604Z,6.90
2023-03-22T13:31:55.137Z,6.60
2023-03-22T13:36:55.261Z,6.60
2023-03-22T13:41:52.407Z,6.20
2023-03-22T13:46:48.050Z,6.30
2023-03-22T13:51:41.977Z,6.60
2023-03-22T13:56:43.688Z,6.70
2023-03-22T14:01:48.004Z,5.80
2023-03-22T14:07:15.032Z,6.10
2023-03-22T14:12:29.781Z,5.50
2023-03-22T14:17:33.158Z,6.80
